Time;durP1;ratioP1;P1;durP2;ratioP2;P2;SDS_P1;SDS_P2;PMS_P1;PMS_P2;Temp;Humidity;BMP_temperature;BMP_pressure;BME280_temperature;BME280_humidity;BME280_pressure;Samples;Min_cycle;Max_cycle;Signal;HPM_P1;HPM_P2
2023/07/30 00:00:12;;;;;;;4.88;2.90;;;;;;;18.54;100.00;100643.44;6064524;29;20746;-67
2023/07/30 00:03:32;;;;;;;3.58;3.28;;;;;;;18.27;100.00;100653.97;6057105;29;20627;-67
2023/07/30 00:06:54;;;;;;;4.97;3.15;;;;;;;18.14;100.00;100658.44;6065729;29;20482;-67
2023/07/30 00:10:15;;;;;;;3.67;2.90;;;;;;;18.09;100.00;100661.75;6043277;29;20245;-66
2023/07/30 00:13:36;;;;;;;4.60;3.45;;;;;;;18.20;100.00;100663.13;6062550;29;20242;-67
2023/07/30 00:16:58;;;;;;;3.95;3.38;;;;;;;17.89;100.00;100666.09;6056874;29;20493;-67
2023/07/30 00:20:19;;;;;;;2.85;2.65;;;;;;;17.79;100.00;100659.22;6041127;29;20489;-67
2023/07/30 00:23:41;;;;;;;3.33;2.58;;;;;;;17.85;100.00;100662.06;6061041;29;20241;-67
2023/07/30 00:27:02;;;;;;;3.85;2.45;;;;;;;17.78;100.00;100663.81;6046302;29;20257;-67
2023/07/30 00:30:23;;;;;;;2.75;2.17;;;;;;;17.70;100.00;100672.09;6045985;29;20234;-67
2023/07/30 00:33:44;;;;;;;3.17;2.25;;;;;;;17.86;100.00;100666.44;6057885;29;20257;-68
2023/07/30 00:37:05;;;;;;;2.55;2.35;;;;;;;18.14;100.00;100661.19;6044040;29;20280;-68
2023/07/30 00:40:28;;;;;;;2.85;2.65;;;;;;;18.25;100.00;100660.69;6051412;29;20245;-67
2023/07/30 00:43:49;;;;;;;3.05;2.65;;;;;;;18.04;100.00;100660.63;6058245;29;20273;-67
2023/07/30 00:47:10;;;;;;;3.10;2.90;;;;;;;17.93;100.00;100655.63;6040181;29;20244;-68
2023/07/30 00:50:32;;;;;;;3.33;2.63;;;;;;;17.87;100.00;100650.94;6059639;29;20233;-67
2023/07/30 00:53:53;;;;;;;6.53;2.50;;;;;;;18.17;100.00;100633.50;6047439;29;20233;-67
2023/07/30 00:57:17;;;;;;;2.35;2.15;;;;;;;18.58;100.00;100631.94;6030988;29;20244;-68
2023/07/30 01:00:38;;;;;;;2.67;2.47;;;;;;;18.87;100.00;100647.34;6060009;29;20225;-67
2023/07/30 01:03:59;;;;;;;3.08;2.25;;;;;;;18.86;100.00;100646.50;6065876;29;20253;-67
2023/07/30 01:07:20;;;;;;;2.67;2.47;;;;;;;18.82;100.00;100638.88;6043453;29;20228;-68
2023/07/30 01:10:42;;;;;;;3.45;2.28;;;;;;;18.89;100.00;100637.06;6051636;29;20237;-68
2023/07/30 01:14:05;;;;;;;2.10;1.95;;;;;;;18.83;100.00;100635.97;6053292;29;20237;-67
2023/07/30 01:17:26;;;;;;;2.45;2.25;;;;;;;18.88;100.00;100647.13;6045174;29;20237;-67
2023/07/30 01:20:47;;;;;;;3.08;2.35;;;;;;;18.86;100.00;100651.94;6026222;29;20230;-68
2023/07/30 01:24:09;;;;;;;3.15;2.88;;;;;;;18.40;100.00;100644.28;6062667;29;20580;-68
2023/07/30 01:27:34;;;;;;;3.03;2.83;;;;;;;18.44;100.00;100648.34;6046100;29;20568;-67
2023/07/30 01:30:57;;;;;;;3.75;2.65;;;;;;;18.40;100.00;100672.41;6051716;29;20235;-68
2023/07/30 01:34:21;;;;;;;3.30;2.92;;;;;;;18.38;100.00;100664.41;6053424;29;20611;-67
2023/07/30 01:37:44;;;;;;;2.40;2.20;;;;;;;18.13;100.00;100664.91;6042369;29;20242;-67
2023/07/30 01:41:07;;;;;;;3.28;3.08;;;;;;;18.18;100.00;100663.34;6058679;29;20274;-67
2023/07/30 01:44:28;;;;;;;3.53;3.22;;;;;;;17.93;100.00;100661.09;6044199;29;20233;-67
2023/07/30 01:47:48;;;;;;;3.10;2.90;;;;;;;17.85;100.00;100666.66;6029600;29;20792;-67
2023/07/30 01:51:09;;;;;;;4.30;3.25;;;;;;;17.95;100.00;100664.47;6032636;29;20319;-68
2023/07/30 01:54:30;;;;;;;4.47;3.53;;;;;;;17.85;100.00;100663.91;6046015;29;20257;-68
2023/07/30 01:57:52;;;;;;;3.50;3.15;;;;;;;17.81;100.00;100655.28;6049666;29;21309;-68
2023/07/30 02:01:13;;;;;;;6.90;3.28;;;;;;;17.84;100.00;100652.16;6047125;29;20558;-66
2023/07/30 02:04:34;;;;;;;3.47;3.20;;;;;;;17.86;100.00;100649.22;6059653;29;20608;-67
2023/07/30 02:07:54;;;;;;;3.25;3.05;;;;;;;17.73;100.00;100647.16;6026310;29;20356;-67
2023/07/30 02:11:15;;;;;;;3.22;2.97;;;;;;;17.71;100.00;100643.78;6057856;29;20258;-67
2023/07/30 02:14:38;;;;;;;3.40;3.10;;;;;;;17.90;100.00;100650.56;6056510;29;20265;-68
2023/07/30 02:17:59;;;;;;;4.22;3.83;;;;;;;18.13;100.00;100646.69;6046521;29;20308;-67
2023/07/30 02:21:20;;;;;;;2.70;2.50;;;;;;;17.91;100.00;100647.66;6033123;29;20237;-68
2023/07/30 02:24:40;;;;;;;4.18;3.05;;;;;;;17.96;100.00;100652.56;6060956;29;20241;-68
2023/07/30 02:28:02;;;;;;;3.15;2.95;;;;;;;17.98;100.00;100650.47;6038929;29;20276;-67
2023/07/30 02:31:24;;;;;;;3.28;3.08;;;;;;;17.83;100.00;100660.53;6051294;29;20225;-67
2023/07/30 02:34:45;;;;;;;3.00;2.80;;;;;;;17.73;100.00;100655.34;6055426;29;20238;-67
2023/07/30 02:38:05;;;;;;;3.13;2.92;;;;;;;17.64;100.00;100659.22;6043475;29;20242;-68
2023/07/30 02:41:27;;;;;;;5.63;3.53;;;;;;;17.87;100.00;100668.16;6050144;29;20245;-67
2023/07/30 02:44:48;;;;;;;4.10;3.40;;;;;;;17.59;100.00;100667.09;6056719;29;20625;-68
2023/07/30 02:48:10;;;;;;;4.88;4.47;;;;;;;17.51;100.00;100664.47;6054806;29;20236;-68
2023/07/30 02:51:30;;;;;;;3.60;3.40;;;;;;;17.48;100.00;100675.72;6050224;29;20237;-67
2023/07/30 02:54:51;;;;;;;4.55;4.15;;;;;;;17.57;100.00;100671.88;6047546;29;20233;-68
2023/07/30 02:58:12;;;;;;;4.47;4.07;;;;;;;17.67;100.00;100672.47;6050225;29;20237;-68
2023/07/30 03:01:33;;;;;;;4.30;3.90;;;;;;;17.54;100.00;100686.72;6045739;29;20256;-67
2023/07/30 03:04:55;;;;;;;5.05;4.50;;;;;;;17.68;100.00;100690.53;6057583;29;20233;-68
2023/07/30 03:08:16;;;;;;;5.18;4.30;;;;;;;17.48;100.00;100687.44;6036589;29;20233;-67
2023/07/30 03:11:37;;;;;;;5.43;4.85;;;;;;;17.56;100.00;100689.28;6052222;29;20715;-67
2023/07/30 03:14:58;;;;;;;5.35;4.85;;;;;;;17.82;100.00;100684.22;6062505;29;20610;-68
2023/07/30 03:18:19;;;;;;;4.78;4.38;;;;;;;17.64;100.00;100688.34;6049687;29;20532;-67
2023/07/30 03:21:43;;;;;;;6.40;5.80;;;;;;;17.64;100.00;100691.09;6057032;29;20253;-68
2023/07/30 03:25:05;;;;;;;7.65;4.95;;;;;;;17.75;100.00;100696.09;6054019;29;20386;-68
2023/07/30 03:28:26;;;;;;;4.65;4.25;;;;;;;17.69;100.00;100686.75;6062837;29;20233;-67
2023/07/30 03:31:47;;;;;;;6.07;4.22;;;;;;;17.75;100.00;100691.47;6049674;29;20233;-68
2023/07/30 03:35:09;;;;;;;5.03;4.53;;;;;;;17.66;100.00;100689.00;6049134;29;20300;-68
2023/07/30 03:38:31;;;;;;;5.78;4.65;;;;;;;17.69;100.00;100689.47;6061142;29;20237;-68
2023/07/30 03:41:52;;;;;;;7.93;4.25;;;;;;;17.49;100.00;100693.75;6038994;29;20233;-68
2023/07/30 03:45:13;;;;;;;4.80;4.40;;;;;;;17.46;100.00;100700.41;6059786;29;20237;-68
2023/07/30 03:48:34;;;;;;;5.22;4.72;;;;;;;17.39;100.00;100702.22;6052867;29;20649;-67
2023/07/30 03:51:55;;;;;;;7.90;4.63;;;;;;;17.51;100.00;100702.63;6029753;29;20399;-68
2023/07/30 03:55:17;;;;;;;5.57;4.45;;;;;;;17.57;100.00;100701.88;6064335;29;20241;-68
2023/07/30 03:58:38;;;;;;;5.22;4.70;;;;;;;17.52;100.00;100701.59;6065716;29;20233;-66
2023/07/30 04:02:00;;;;;;;5.38;4.88;;;;;;;17.49;100.00;100700.09;6048166;29;20232;-68
2023/07/30 04:05:21;;;;;;;5.75;4.13;;;;;;;17.54;100.00;100705.81;6048124;29;20229;-67
2023/07/30 04:08:41;;;;;;;5.72;5.05;;;;;;;17.53;100.00;100712.31;6064536;29;20229;-67
2023/07/30 04:12:05;;;;;;;4.90;4.25;;;;;;;17.49;100.00;100711.00;6052684;29;20262;-68
2023/07/30 04:15:26;;;;;;;3.88;3.47;;;;;;;17.58;100.00;100710.91;6040472;29;20229;-67
2023/07/30 04:18:47;;;;;;;13.00;4.65;;;;;;;17.58;100.00;100715.31;6058266;29;20639;-67
2023/07/30 04:22:07;;;;;;;5.13;4.63;;;;;;;17.63;100.00;100708.50;6034141;29;20237;-68
2023/07/30 04:25:28;;;;;;;4.63;4.22;;;;;;;17.75;100.00;100710.56;6041857;29;20229;-68
2023/07/30 04:28:51;;;;;;;6.63;4.10;;;;;;;17.49;100.00;100705.53;6054667;29;20256;-67
2023/07/30 04:32:12;;;;;;;7.70;4.80;;;;;;;17.69;100.00;100707.75;6045023;29;20232;-67
2023/07/30 04:35:33;;;;;;;8.90;5.15;;;;;;;17.71;100.00;100703.78;6044037;29;20230;-67
2023/07/30 04:38:55;;;;;;;5.22;4.03;;;;;;;17.91;100.00;100715.84;6058244;29;20245;-68
2023/07/30 04:42:21;;;;;;;6.28;5.05;;;;;;;18.10;100.00;100718.00;6028901;29;20316;-67
2023/07/30 04:45:44;;;;;;;5.93;4.28;;;;;;;17.98;100.00;100714.03;6044495;29;20241;-67
2023/07/30 04:49:05;;;;;;;5.95;4.65;;;;;;;18.01;100.00;100723.75;6042686;29;20241;-66
2023/07/30 04:52:26;;;;;;;8.23;4.75;;;;;;;17.87;100.00;100722.72;6040354;29;20253;-68
2023/07/30 04:55:47;;;;;;;7.88;4.60;;;;;;;17.63;100.00;100725.66;6048260;29;20241;-68
2023/07/30 04:59:08;;;;;;;4.97;4.20;;;;;;;17.84;100.00;100724.94;6048240;29;20244;-67
2023/07/30 05:02:31;;;;;;;6.97;4.43;;;;;;;17.60;100.00;100722.47;6040595;29;20229;-67
2023/07/30 05:05:52;;;;;;;4.22;3.67;;;;;;;17.79;100.00;100724.69;6050522;29;20233;-67
2023/07/30 05:09:13;;;;;;;6.55;4.60;;;;;;;17.81;100.00;100711.69;6058752;29;20237;-68
2023/07/30 05:12:33;;;;;;;7.95;4.28;;;;;;;17.90;100.00;100718.78;6045475;29;20328;-66
2023/07/30 05:15:55;;;;;;;5.30;4.80;;;;;;;17.83;100.00;100715.94;6046128;29;20237;-68
2023/07/30 05:19:17;;;;;;;4.63;4.07;;;;;;;18.02;100.00;100717.25;6058516;29;20237;-67
2023/07/30 05:22:38;;;;;;;6.30;3.90;;;;;;;18.23;100.00;100712.72;6039237;29;20273;-68
2023/07/30 05:25:59;;;;;;;5.40;3.80;;;;;;;18.53;100.00;100720.91;6052738;29;20687;-68
2023/07/30 05:29:20;;;;;;;9.82;3.35;;;;;;;18.28;100.00;100714.88;6064401;29;20268;-68
2023/07/30 05:32:41;;;;;;;5.00;4.15;;;;;;;18.20;100.00;100725.91;6051702;29;20233;-68
2023/07/30 05:36:03;;;;;;;6.68;4.20;;;;;;;17.90;100.00;100719.59;6042426;29;20237;-68
2023/07/30 05:39:24;;;;;;;8.50;4.18;;;;;;;18.14;100.00;100715.75;6063361;29;20229;-68
2023/07/30 05:42:44;;;;;;;5.82;4.50;;;;;;;18.02;100.00;100712.63;6042638;29;20233;-67
2023/07/30 05:46:05;;;;;;;4.53;3.83;;;;;;;18.07;100.00;100720.25;6045650;29;20243;-68
2023/07/30 05:49:26;;;;;;;5.00;3.92;;;;;;;17.93;100.00;100715.66;6059334;29;20550;-67
2023/07/30 05:52:48;;;;;;;5.97;4.82;;;;;;;17.91;100.00;100709.53;6048384;29;20233;-67
2023/07/30 05:56:10;;;;;;;9.93;4.13;;;;;;;17.89;100.00;100712.47;6049889;29;20238;-67
2023/07/30 05:59:31;;;;;;;6.30;4.97;;;;;;;17.91;100.00;100715.00;6061099;29;20615;-67
2023/07/30 06:02:52;;;;;;;7.50;4.28;;;;;;;18.13;100.00;100720.34;6047651;29;20335;-68
2023/07/30 06:06:13;;;;;;;8.20;4.28;;;;;;;17.88;100.00;100723.53;6045426;29;21056;-67
2023/07/30 06:09:35;;;;;;;9.63;4.72;;;;;;;18.17;100.00;100724.41;6063107;29;20316;-68
2023/07/30 06:12:56;;;;;;;8.75;4.50;;;;;;;18.44;100.00;100722.06;6048278;29;20233;-68
2023/07/30 06:16:20;;;;;;;9.57;5.40;;;;;;;18.14;100.00;100724.78;6047930;29;20257;-68
2023/07/30 06:19:41;;;;;;;8.73;4.28;;;;;;;18.38;100.00;100729.06;6064718;29;20261;-67
2023/07/30 06:23:03;;;;;;;7.13;5.00;;;;;;;18.38;100.00;100731.81;6040444;29;20232;-68
2023/07/30 06:26:26;;;;;;;9.18;4.68;;;;;;;18.65;100.00;100730.31;6046872;29;20237;-68
2023/07/30 06:29:47;;;;;;;10.77;5.05;;;;;;;18.50;100.00;100733.06;6061242;29;20265;-69
2023/07/30 06:33:08;;;;;;;7.00;4.50;;;;;;;18.87;99.87;100724.69;6043515;29;20547;-68
2023/07/30 06:36:29;;;;;;;5.63;4.07;;;;;;;18.91;98.54;100736.06;6044280;29;20232;-68
2023/07/30 06:39:50;;;;;;;10.82;6.32;;;;;;;18.59;98.15;100731.91;6057222;29;20229;-67
2023/07/30 06:43:12;;;;;;;6.55;5.53;;;;;;;18.24;98.73;100732.69;6035724;29;20260;-68
2023/07/30 06:46:33;;;;;;;6.10;4.82;;;;;;;18.74;99.02;100735.47;6046040;29;20233;-68
2023/07/30 06:49:53;;;;;;;7.72;5.72;;;;;;;18.47;98.96;100738.03;6056144;29;20237;-67
2023/07/30 06:53:14;;;;;;;11.85;5.95;;;;;;;18.93;98.72;100740.31;6048549;29;20233;-67
2023/07/30 06:56:35;;;;;;;9.00;5.47;;;;;;;18.60;99.05;100736.34;6043850;29;21423;-68
2023/07/30 06:59:58;;;;;;;8.02;5.18;;;;;;;18.79;99.30;100743.09;6054107;29;20238;-68
2023/07/30 07:03:19;;;;;;;10.80;6.93;;;;;;;18.56;99.68;100736.91;6055221;29;20336;-67
2023/07/30 07:06:40;;;;;;;10.43;6.22;;;;;;;18.71;99.73;100745.94;6048858;29;20237;-67
2023/07/30 07:10:00;;;;;;;10.40;6.68;;;;;;;18.85;99.92;100755.97;6052304;29;21066;-68
2023/07/30 07:13:21;;;;;;;9.23;6.07;;;;;;;19.09;99.09;100752.84;6019575;29;20233;-68
2023/07/30 07:16:44;;;;;;;10.68;6.22;;;;;;;18.91;99.38;100756.03;6046348;29;21136;-68
2023/07/30 07:20:07;;;;;;;6.45;5.72;;;;;;;18.68;98.90;100755.34;6059978;29;20226;-68
2023/07/30 07:23:27;;;;;;;10.38;6.53;;;;;;;18.33;99.64;100764.31;6053097;29;20233;-68
2023/07/30 07:26:51;;;;;;;14.27;7.82;;;;;;;18.84;99.90;100757.00;6047172;29;20229;-68
2023/07/30 07:30:12;;;;;;;8.00;6.57;;;;;;;19.01;99.28;100753.00;6052092;29;20796;-67
2023/07/30 07:33:35;;;;;;;9.75;7.57;;;;;;;19.04;98.48;100758.06;6051787;29;20930;-68
2023/07/30 07:36:55;;;;;;;11.85;6.88;;;;;;;19.34;97.73;100756.94;6028550;29;20325;-68
2023/07/30 07:40:17;;;;;;;15.98;6.97;;;;;;;19.70;95.60;100752.22;6059584;29;20233;-68
2023/07/30 07:43:37;;;;;;;9.70;6.15;;;;;;;19.29;95.50;100755.81;6048362;29;20320;-67
2023/07/30 07:46:58;;;;;;;14.52;5.60;;;;;;;19.25;95.23;100744.44;6033890;29;20233;-67
2023/07/30 07:50:20;;;;;;;8.57;6.28;;;;;;;19.78;94.63;100754.81;6051604;29;20587;-66
2023/07/30 07:53:41;;;;;;;16.67;6.93;;;;;;;19.34;94.33;100751.47;6053302;29;20805;-67
2023/07/30 07:57:03;;;;;;;13.57;7.07;;;;;;;20.02;93.27;100748.03;6042835;29;20257;-67
2023/07/30 08:00:23;;;;;;;6.90;5.07;;;;;;;19.66;92.74;100758.28;6050366;29;20238;-65
2023/07/30 08:03:45;;;;;;;7.10;5.13;;;;;;;19.47;93.76;100748.88;6051365;29;20233;-66
2023/07/30 08:07:07;;;;;;;6.82;4.78;;;;;;;19.32;94.07;100755.41;6037755;29;20233;-66
2023/07/30 08:10:28;;;;;;;9.60;4.72;;;;;;;19.78;93.32;100753.94;6049614;29;22005;-66
2023/07/30 08:13:48;;;;;;;5.97;4.30;;;;;;;19.60;93.32;100743.50;6043227;29;20610;-67
2023/07/30 08:17:09;;;;;;;9.02;5.63;;;;;;;19.69;92.56;100744.22;6039628;29;20559;-66
2023/07/30 08:20:30;;;;;;;10.35;5.07;;;;;;;19.98;91.94;100746.75;6052563;29;20225;-65
2023/07/30 08:23:52;;;;;;;11.75;5.53;;;;;;;20.24;90.43;100737.88;6053418;29;20244;-64
2023/07/30 08:27:13;;;;;;;10.35;6.35;;;;;;;20.20;90.41;100733.84;6021089;29;20238;-66
2023/07/30 08:30:34;;;;;;;4.60;4.20;;;;;;;20.07;90.20;100742.78;6038222;29;20233;-66
2023/07/30 08:33:55;;;;;;;13.15;4.55;;;;;;;20.12;89.47;100737.56;6039416;29;20336;-67
2023/07/30 08:37:16;;;;;;;7.50;4.03;;;;;;;20.62;89.25;100726.28;6046182;29;20229;-67
2023/07/30 08:40:38;;;;;;;8.90;5.60;;;;;;;20.77;87.82;100730.75;6044750;29;20241;-68
2023/07/30 08:44:02;;;;;;;10.32;3.90;;;;;;;20.75;87.03;100735.59;6055233;29;20265;-67
2023/07/30 08:47:23;;;;;;;9.20;3.92;;;;;;;20.23;86.71;100728.84;6036961;29;20233;-68
2023/07/30 08:50:45;;;;;;;7.47;3.35;;;;;;;20.50;85.88;100724.31;6037386;29;21995;-68
2023/07/30 08:54:07;;;;;;;9.73;4.65;;;;;;;20.97;84.63;100740.72;6044926;29;20600;-69
2023/07/30 08:57:30;;;;;;;7.43;3.53;;;;;;;20.83;84.91;100741.72;6029929;29;20249;-71
2023/07/30 09:00:54;;;;;;;7.13;5.22;;;;;;;20.42;85.59;100741.75;6033113;29;20322;-66
2023/07/30 09:04:18;;;;;;;5.82;3.67;;;;;;;20.14;86.28;100740.94;6039418;29;20249;-66
2023/07/30 09:07:39;;;;;;;6.65;5.03;;;;;;;20.45;86.08;100746.84;6024976;29;20242;-65
2023/07/30 09:11:07;;;;;;;5.78;3.40;;;;;;;20.45;86.37;100754.22;6027091;29;20245;-65
2023/07/30 09:14:29;;;;;;;5.38;3.25;;;;;;;20.60;85.10;100743.97;6030664;29;20569;-65
2023/07/30 09:17:55;;;;;;;10.98;4.07;;;;;;;21.04;84.10;100749.00;6013163;29;20560;-66
2023/07/30 09:21:16;;;;;;;5.47;3.00;;;;;;;20.65;83.36;100755.16;6023333;29;20357;-66
2023/07/30 09:24:42;;;;;;;5.03;2.90;;;;;;;20.69;82.87;100750.97;6040543;29;20229;-65
2023/07/30 09:28:04;;;;;;;6.60;3.55;;;;;;;20.67;82.87;100755.81;6014984;29;20249;-65
2023/07/30 09:31:26;;;;;;;6.05;2.67;;;;;;;20.49;84.34;100756.34;6027216;29;20245;-66
2023/07/30 09:34:47;;;;;;;6.25;2.90;;;;;;;21.13;82.19;100753.25;6053454;29;20628;-65
2023/07/30 09:38:08;;;;;;;10.95;3.03;;;;;;;20.72;83.04;100753.28;6006493;29;20237;-65
2023/07/30 09:41:29;;;;;;;3.72;2.60;;;;;;;20.46;83.18;100755.91;6042434;29;20241;-65
2023/07/30 09:44:52;;;;;;;5.05;3.72;;;;;;;20.77;83.39;100760.88;6051806;29;20298;-66
2023/07/30 09:48:14;;;;;;;5.45;2.42;;;;;;;20.73;82.86;100769.50;6037698;29;20241;-66
2023/07/30 09:51:37;;;;;;;5.05;2.47;;;;;;;20.69;82.63;100756.44;6042919;29;20313;-66
2023/07/30 09:54:59;;;;;;;4.40;3.30;;;;;;;21.26;82.42;100769.69;6041139;29;20276;-65
2023/07/30 09:58:20;;;;;;;5.78;2.95;;;;;;;21.33;80.63;100759.59;6042078;29;20256;-64
2023/07/30 10:01:44;;;;;;;10.05;3.05;;;;;;;21.02;80.68;100767.50;6055683;29;20260;-65
2023/07/30 10:05:11;;;;;;;3.28;2.00;;;;;;;20.66;81.35;100757.69;6059413;29;20261;-65
2023/07/30 10:08:36;;;;;;;4.80;3.33;;;;;;;21.10;80.93;100759.13;6046276;29;20258;-65
2023/07/30 10:11:59;;;;;;;5.30;2.92;;;;;;;21.08;80.17;100775.78;6045077;29;20245;-65
2023/07/30 10:15:23;;;;;;;6.25;2.95;;;;;;;20.54;79.34;100777.66;6054990;29;20240;-64
2023/07/30 10:18:45;;;;;;;9.23;3.42;;;;;;;20.52;79.23;100783.34;6041629;29;20323;-64
2023/07/30 10:22:22;;;;;;;5.63;3.08;;;;;;;20.49;79.21;100785.63;6043735;29;20526;-65
2023/07/30 10:25:45;;;;;;;6.53;2.53;;;;;;;21.59;77.27;100780.75;6040787;29;20226;-64
2023/07/30 10:29:16;;;;;;;3.10;2.35;;;;;;;21.81;76.40;100787.72;6050641;29;20678;-65
2023/07/30 10:32:43;;;;;;;5.13;2.50;;;;;;;21.56;76.40;100798.47;6036698;29;20229;-65
2023/07/30 10:36:05;;;;;;;8.18;2.92;;;;;;;21.90;75.61;100781.84;6040231;29;20236;-65
2023/07/30 10:39:29;;;;;;;6.22;2.72;;;;;;;21.80;74.19;100784.09;6050615;29;20277;-64
2023/07/30 10:42:50;;;;;;;6.20;2.85;;;;;;;21.09;74.83;100793.91;6042621;29;20241;-65
2023/07/30 10:46:13;;;;;;;4.05;2.75;;;;;;;21.33;75.24;100792.50;6038334;29;20237;-64
2023/07/30 10:49:37;;;;;;;6.30;2.55;;;;;;;21.28;74.74;100803.25;6052355;29;20244;-64
2023/07/30 10:52:59;;;;;;;2.83;2.55;;;;;;;21.48;73.80;100798.66;6040113;29;20233;-65
2023/07/30 10:56:24;;;;;;;4.28;2.47;;;;;;;21.38;72.78;100806.47;6042178;29;20233;-65
2023/07/30 10:59:44;;;;;;;8.43;3.15;;;;;;;21.11;72.81;100794.56;6051943;29;20237;-65
2023/07/30 11:03:05;;;;;;;4.05;2.72;;;;;;;21.13;72.32;100802.59;6045182;29;20230;-65
2023/07/30 11:06:27;;;;;;;6.50;1.92;;;;;;;20.96;71.34;100791.13;6045979;29;20228;-64
2023/07/30 11:09:59;;;;;;;3.40;1.90;;;;;;;21.35;70.70;100804.13;6056372;29;21773;-64
2023/07/30 11:13:21;;;;;;;3.58;2.50;;;;;;;20.87;71.27;100805.19;6047238;29;20237;-65
2023/07/30 11:16:49;;;;;;;2.10;1.90;;;;;;;21.31;70.92;100794.63;6042138;29;20579;-65
2023/07/30 11:20:22;;;;;;;8.35;2.75;;;;;;;21.30;69.62;100793.78;6048220;29;20242;-64
2023/07/30 11:23:45;;;;;;;7.90;3.17;;;;;;;21.96;67.79;100791.97;6053079;29;21114;-65
2023/07/30 11:27:06;;;;;;;5.63;2.97;;;;;;;22.26;67.26;100782.19;6040781;29;20298;-65
2023/07/30 11:30:30;;;;;;;4.80;2.45;;;;;;;23.34;64.49;100783.31;6049786;29;22241;-65
2023/07/30 11:33:52;;;;;;;2.17;1.70;;;;;;;23.54;63.30;100787.59;6048690;29;20236;-64
2023/07/30 11:37:13;;;;;;;4.07;2.38;;;;;;;23.06;62.37;100775.38;6037175;29;20253;-64
2023/07/30 11:40:34;;;;;;;4.53;1.90;;;;;;;22.41;63.19;100792.09;6048344;29;20671;-65
2023/07/30 11:43:58;;;;;;;2.35;2.15;;;;;;;22.09;63.41;100783.69;6053858;29;20297;-65
2023/07/30 11:47:24;;;;;;;3.92;2.25;;;;;;;22.83;62.13;100775.94;6040122;29;20518;-65
2023/07/30 11:50:47;;;;;;;1.92;1.52;;;;;;;22.62;60.75;100780.88;6030399;29;20229;-64
2023/07/30 11:54:08;;;;;;;3.15;2.20;;;;;;;23.00;61.19;100773.53;6055387;29;20236;-64
2023/07/30 11:57:34;;;;;;;2.78;1.85;;;;;;;22.69;60.77;100773.44;6040620;29;20261;-64
2023/07/30 12:00:55;;;;;;;5.75;2.25;;;;;;;23.67;59.42;100778.41;6044525;29;20515;-64
2023/07/30 12:04:17;;;;;;;3.10;1.65;;;;;;;22.53;60.47;100758.22;6049769;29;20237;-65
2023/07/30 12:07:41;;;;;;;2.13;1.73;;;;;;;23.17;60.00;100760.09;6041260;29;20233;-64
2023/07/30 12:11:03;;;;;;;6.80;2.45;;;;;;;23.64;59.19;100767.81;6048616;29;20260;-65
2023/07/30 12:14:29;;;;;;;4.13;2.08;;;;;;;23.85;59.53;100756.44;6059293;29;20237;-65
2023/07/30 12:17:51;;;;;;;3.80;1.85;;;;;;;24.72;57.93;100745.13;6035169;29;20772;-64
2023/07/30 12:21:13;;;;;;;2.15;1.70;;;;;;;23.50;59.12;100753.34;6044911;29;20560;-64
2023/07/30 12:24:34;;;;;;;2.53;1.63;;;;;;;23.54;59.24;100749.06;6057006;29;20237;-64
2023/07/30 12:27:55;;;;;;;3.47;2.42;;;;;;;23.32;58.86;100744.97;6043304;29;20230;-64
2023/07/30 12:31:16;;;;;;;5.35;2.10;;;;;;;24.13;57.07;100750.47;6045504;29;20233;-64
2023/07/30 12:34:37;;;;;;;4.38;2.08;;;;;;;23.94;56.96;100734.94;6054128;29;21098;-65
2023/07/30 12:37:59;;;;;;;5.85;2.35;;;;;;;22.98;59.03;100731.66;6040004;29;20264;-64
2023/07/30 12:41:25;;;;;;;2.88;1.60;;;;;;;23.57;57.32;100740.34;6041178;29;20624;-65
2023/07/30 12:44:46;;;;;;;3.67;1.90;;;;;;;23.40;58.85;100721.88;6054200;29;20276;-64
2023/07/30 12:48:08;;;;;;;2.17;1.63;;;;;;;24.73;55.08;100718.38;6039241;29;20248;-65
2023/07/30 12:51:29;;;;;;;2.72;1.85;;;;;;;22.61;58.77;100715.97;6047006;29;20242;-65
2023/07/30 12:54:51;;;;;;;6.97;2.65;;;;;;;22.72;59.69;100707.03;6055610;29;20348;-65
2023/07/30 12:58:12;;;;;;;1.25;1.15;;;;;;;23.26;58.03;100714.75;6036936;29;20232;-64
2023/07/30 13:01:33;;;;;;;4.40;1.95;;;;;;;23.22;57.46;100711.59;6045864;29;20241;-65
2023/07/30 13:04:54;;;;;;;3.88;1.80;;;;;;;22.47;58.13;100717.03;6055062;29;20241;-65
2023/07/30 13:08:15;;;;;;;5.30;2.47;;;;;;;21.98;59.25;100731.34;6041043;29;20623;-65
2023/07/30 13:11:37;;;;;;;3.22;2.22;;;;;;;21.74;60.46;100730.06;6040887;29;20238;-64
2023/07/30 13:14:58;;;;;;;4.78;2.22;;;;;;;20.51;65.52;100814.50;6055451;29;20229;-65
2023/07/30 13:18:19;;;;;;;3.05;1.50;;;;;;;18.32;79.36;100837.16;6050301;29;20245;-65
2023/07/30 13:21:40;;;;;;;2.38;1.60;;;;;;;18.21;83.65;100850.41;6044674;29;20345;-65
2023/07/30 13:25:00;;;;;;;1.70;1.55;;;;;;;17.75;87.22;100879.66;6057547;29;20501;-65
2023/07/30 13:28:22;;;;;;;1.52;1.42;;;;;;;17.34;89.73;100887.22;6050774;29;20320;-65
2023/07/30 13:31:44;;;;;;;2.33;1.60;;;;;;;17.87;90.69;100910.06;6043734;29;20236;-65
2023/07/30 13:35:05;;;;;;;2.05;1.05;;;;;;;17.98;91.34;100883.19;6060321;29;20324;-65
2023/07/30 13:38:27;;;;;;;2.55;1.40;;;;;;;17.54;92.06;100884.91;6052360;29;20237;-65
2023/07/30 13:41:48;;;;;;;2.40;1.48;;;;;;;17.73;92.56;100892.59;6054128;29;20249;-65
2023/07/30 13:45:10;;;;;;;1.98;1.20;;;;;;;17.30;93.17;100896.78;6067102;29;20335;-64
2023/07/30 13:48:31;;;;;;;2.90;1.23;;;;;;;17.50;94.17;100895.31;6039685;29;20233;-64
2023/07/30 13:51:52;;;;;;;4.57;1.77;;;;;;;17.31;94.51;100893.00;6052126;29;20242;-64
2023/07/30 13:55:12;;;;;;;5.22;2.10;;;;;;;17.32;93.65;100892.00;6069485;29;20284;-64
2023/07/30 13:58:33;;;;;;;2.13;1.38;;;;;;;17.19;93.63;100883.53;6053777;29;20248;-65
2023/07/30 14:01:55;;;;;;;2.88;1.50;;;;;;;17.36;92.58;100867.94;6053203;29;20241;-66
2023/07/30 14:05:17;;;;;;;2.75;2.13;;;;;;;18.15;92.16;100862.91;6065185;29;20257;-66
2023/07/30 14:08:38;;;;;;;1.42;1.33;;;;;;;19.10;89.15;100859.28;6048579;29;20238;-66
2023/07/30 14:11:58;;;;;;;2.58;1.58;;;;;;;18.91;87.26;100859.00;6035665;29;20600;-65
2023/07/30 14:15:19;;;;;;;1.40;1.20;;;;;;;20.14;84.41;100847.72;6055712;29;20238;-66
2023/07/30 14:18:41;;;;;;;2.47;1.75;;;;;;;20.73;81.82;100833.59;6051149;29;20229;-66
2023/07/30 14:22:02;;;;;;;2.17;1.38;;;;;;;21.12;77.78;100831.91;6051124;29;20244;-66
2023/07/30 14:25:23;;;;;;;1.95;1.80;;;;;;;21.52;75.78;100826.53;6061692;29;20225;-66
2023/07/30 14:28:44;;;;;;;3.17;1.75;;;;;;;21.81;73.61;100828.88;6055187;29;20316;-67
2023/07/30 14:32:06;;;;;;;3.30;2.00;;;;;;;21.74;72.26;100826.13;6051179;29;20229;-66
2023/07/30 14:35:29;;;;;;;6.43;3.72;;;;;;;20.67;72.43;100819.66;6059672;29;20245;-65
2023/07/30 14:38:49;;;;;;;6.50;3.25;;;;;;;21.61;72.70;100817.03;6060037;29;20237;-66
2023/07/30 14:42:10;;;;;;;3.08;1.80;;;;;;;21.54;71.44;100813.44;6050676;29;22473;-67
2023/07/30 14:45:31;;;;;;;2.88;2.03;;;;;;;21.43;70.95;100825.88;6055639;29;20300;-66
2023/07/30 14:48:53;;;;;;;3.10;2.72;;;;;;;22.77;69.56;100820.78;6026741;29;20506;-66
2023/07/30 14:52:15;;;;;;;3.90;2.35;;;;;;;21.37;68.88;100816.59;6050157;29;20272;-66
2023/07/30 14:55:36;;;;;;;3.08;1.45;;;;;;;21.98;68.85;100816.47;6059306;29;20240;-66
2023/07/30 14:58:56;;;;;;;1.98;1.67;;;;;;;21.79;66.16;100815.38;6057994;29;20572;-65
2023/07/30 15:02:17;;;;;;;3.50;1.42;;;;;;;21.65;66.45;100813.69;6033951;29;21254;-65
2023/07/30 15:05:38;;;;;;;2.35;1.10;;;;;;;21.85;66.65;100822.78;6045705;29;20324;-65
2023/07/30 15:09:01;;;;;;;7.22;1.90;;;;;;;22.37;65.23;100821.06;6056586;29;20312;-66
2023/07/30 15:12:21;;;;;;;1.35;1.17;;;;;;;23.07;63.88;100823.84;6038068;29;20246;-65
2023/07/30 15:15:42;;;;;;;1.75;1.33;;;;;;;21.75;65.47;100818.75;6045697;29;20232;-66
2023/07/30 15:19:03;;;;;;;3.53;2.67;;;;;;;22.56;66.01;100822.94;6047485;29;20392;-65
2023/07/30 15:22:24;;;;;;;4.80;1.48;;;;;;;21.81;65.65;100823.38;6024379;29;20234;-66
2023/07/30 15:25:46;;;;;;;2.67;2.10;;;;;;;22.52;65.80;100836.25;6033786;29;20245;-65
2023/07/30 15:29:07;;;;;;;2.80;1.48;;;;;;;21.94;67.21;100831.66;6043705;29;20336;-66
2023/07/30 15:32:30;;;;;;;3.03;1.85;;;;;;;22.17;67.90;100841.16;6023420;29;20229;-67